SBOSBO BDA / TXKF
Speedbird OnlineSpeedbird Online BDA / TXKF

L.F. Wade International International Airport
10:40 21°C

Location Bermuda, Bermuda
Latitude: 32.36399841308594
Longitude: -64.67870330810547
Web Airport Website | Wikipedia
Altitude 4 Meter / 12 Feet
Distance 5,560 KM / 3,455 Miles
from London.
Time Zone UTC -4 hours (Atlantic/Bermuda)
Codes IATA: BDA
ICAO: TXKF
Currency £1 equals BMD 1.23
Runways
RunwayLength (m)Surface
122958Asphalt
302958Asphalt
Radio
TypeDescriptionFrequency
APPNEW YORK APP119.1
CLDCLNC DEL124.5
CNTRNEW YORK CNTR128.5
CTAFCTAF122.8
GNDGND124.5
TWRTWR118.1
Live ATC
METAR TXKF 311355Z 23012KT 9999 VCSH SCT014 BKN039 BKN065 21/19 Q1020
TAF TAF TXKF 311131Z 3112/0112 22012KT 9999 FEW014 SCT018 BKN040 PROB40 TEMPO 3112/3120 5000 SHRA SCT008 BKN014 PROB30 TEMPO 3114/3118 24015G25KT 3000 SHRA BKN006 BECMG 3115/3119 28012KT FEW008 SCT014 BKN035 PROB30 TEMPO 3118/3124 SCT008 BKN014 BECMG 3120/3123 33012KT SCT030 BKN060
Weather As Of 31 Jan 2023 10:40
Description Broken clouds
Wind 22 km/h from South-West (230°)
Cloud Cover 75%
Precipitation Rain: none, Snow: none
Sunrise 07:13
Sunset 17:50
Lounges Primeclass Lounge, International Terminal
Rotations During the last 90 days there were
62 flights from LHR
1 flights from LGW
62 flights to LHR



Support Speedbird Online

© 2017-2023 Speedbird Online